KPIT/PIT METAR and TAF weather

Enter ICAO airport designator
Station Type Date Time Source
KPIT METAR 2019/12/08 00:51 UTC NOAA

KPIT 080051Z 00000KT 10SM BKN250 M01/M08 A3038 RMK AO2 SLP312 T10111078


Station Type Date Time Source
KPIT Decoded METAR 2019/12/08 00:51 UTC NOAA

GREATER PITTSBURGH INTERNATIONAL , PA, United States (KPIT) 40-29N 80-14W 357M
Dec 07, 2019 - 07:51 PM EST / 2019.12.08 0051 UTC
Wind: Calm:0
Visibility: 10 mile(s):0
Sky conditions: mostly cloudy
Temperature: 30.0 F (-1.1 C)
Dew Point: 18.0 F (-7.8 C)
Relative Humidity: 60%
Pressure (altimeter): 30.38 in. Hg (1028 hPa)
ob: KPIT 080051Z 00000KT 10SM BKN250 M01/M08 A3038 RMK AO2 SLP312 T10111078
cycle: 1

Station Type Date Time Source
KPIT TAF 2019/12/07 21:58 UTC NOAA

TAF
AMD KPIT 072056Z 0721/0824 VRB03KT P6SM SKC
FM081400 14004KT P6SM SCT020
FM081800 19007KT P6SM BKN025

Example: see airport list